createdAt,value
2023-03-23T15:59:09.403Z,97761.91
2023-03-23T16:01:39.179Z,97756.38
2023-03-23T16:04:14.380Z,97750.97
2023-03-23T16:06:41.916Z,97742.91
2023-03-23T16:09:13.388Z,97740.38
2023-03-23T16:11:40.098Z,97738.16
2023-03-23T16:14:06.877Z,97732.84
2023-03-23T16:16:49.650Z,97735.13
2023-03-23T16:19:18.149Z,97733.41
2023-03-23T16:21:44.783Z,97729.59
2023-03-23T16:24:11.961Z,97735.25
2023-03-23T16:26:40.848Z,97739.81
2023-03-23T16:29:23.944Z,97721.06
2023-03-23T16:31:59.799Z,97733.88
2023-03-23T16:34:28.956Z,97728.41
2023-03-23T16:36:56.477Z,97738.72
2023-03-23T16:39:23.431Z,97714.28
2023-03-23T16:41:50.395Z,97722.38
2023-03-23T16:44:17.208Z,97722.53
2023-03-23T16:46:43.887Z,97705.63
2023-03-23T16:49:10.525Z,97713.13
2023-03-23T16:51:37.263Z,97710.59
2023-03-23T16:54:04.298Z,97712.00
2023-03-23T16:56:30.988Z,97710.09
2023-03-23T16:58:57.770Z,97710.22
2023-03-23T17:01:24.506Z,97715.56
2023-03-23T17:03:51.261Z,97712.91
2023-03-23T17:06:17.966Z,97717.41
2023-03-23T17:08:44.568Z,97722.97
2023-03-23T17:11:11.812Z,97716.75
2023-03-23T17:13:38.770Z,97717.16
2023-03-23T17:16:05.949Z,97723.13
2023-03-23T17:18:32.612Z,97717.66
2023-03-23T17:20:59.228Z,97704.22
2023-03-23T17:23:26.167Z,97710.53
2023-03-23T17:25:53.960Z,97701.09
2023-03-23T17:28:21.120Z,97700.31
2023-03-23T17:30:48.521Z,97701.53
2023-03-23T17:33:15.401Z,97710.69
2023-03-23T17:35:43.020Z,97708.47
2023-03-23T17:38:09.891Z,97715.72
2023-03-23T17:40:36.688Z,97708.34
2023-03-23T17:43:03.384Z,97704.53
2023-03-23T17:45:31.217Z,97693.50
2023-03-23T17:47:57.935Z,97698.69
2023-03-23T17:50:24.803Z,97696.41
2023-03-23T17:52:51.450Z,97697.25
2023-03-23T17:55:18.200Z,97686.97
2023-03-23T17:57:45.985Z,97695.69
2023-03-23T18:00:13.658Z,97696.91
2023-03-23T18:02:41.063Z,97684.31
2023-03-23T18:05:09.452Z,97683.66
2023-03-23T18:07:36.874Z,97667.56
2023-03-23T18:10:11.696Z,97677.97
2023-03-23T18:12:40.254Z,97671.84
2023-03-23T18:15:07.944Z,97668.78
2023-03-23T18:17:34.675Z,97672.44
2023-03-23T18:20:01.456Z,97677.63
2023-03-23T18:22:28.036Z,97680.03
2023-03-23T18:24:55.395Z,97690.34
2023-03-23T18:27:22.039Z,97678.59
2023-03-23T18:29:48.729Z,97682.63
2023-03-23T18:32:17.136Z,97671.66
2023-03-23T18:34:43.902Z,97683.63
2023-03-23T18:37:10.871Z,97673.75
2023-03-23T18:39:38.563Z,97680.13
2023-03-23T18:42:06.317Z,97674.22
2023-03-23T18:44:33.464Z,97675.09
2023-03-23T18:47:00.566Z,97681.44
2023-03-23T18:49:28.526Z,97685.41
2023-03-23T18:51:55.444Z,97681.50
2023-03-23T18:54:22.053Z,97685.50
2023-03-23T18:56:48.679Z,97685.53
2023-03-23T18:59:15.751Z,97691.88
2023-03-23T19:01:42.639Z,97693.47
2023-03-23T19:04:09.443Z,97694.19
2023-03-23T19:06:36.168Z,97702.84
2023-03-23T19:09:02.886Z,97722.13
2023-03-23T19:11:29.829Z,97769.88
2023-03-23T19:16:26.815Z,97761.63
2023-03-23T19:18:53.522Z,97758.72
2023-03-23T19:21:24.945Z,97728.13
2023-03-23T19:23:52.449Z,97733.38
2023-03-23T19:26:23.926Z,97741.78
2023-03-23T19:31:23.712Z,97712.84
2023-03-23T19:33:52.912Z,97722.38
2023-03-23T19:36:21.395Z,97720.53
2023-03-23T19:38:50.836Z,97737.50
2023-03-23T19:41:19.397Z,97727.66
2023-03-23T19:43:46.223Z,97726.88
2023-03-23T19:46:14.525Z,97720.56
2023-03-23T19:48:41.681Z,97716.22
2023-03-23T19:51:09.816Z,97725.66
2023-03-23T19:53:36.542Z,97723.66
2023-03-23T19:56:04.918Z,97731.13
2023-03-23T19:58:32.518Z,97720.47
2023-03-23T20:01:01.316Z,97729.50
2023-03-23T20:03:29.034Z,97746.81
2023-03-23T20:06:21.813Z,97730.63
2023-03-23T20:08:49.508Z,97755.50
2023-03-23T20:11:19.064Z,97753.19
2023-03-23T20:16:13.542Z,97752.47
2023-03-23T20:18:41.074Z,97755.63
2023-03-23T20:21:11.146Z,97749.38
2023-03-23T20:23:38.823Z,97752.16
2023-03-23T20:26:19.571Z,97759.66
2023-03-23T20:28:47.643Z,97754.19
2023-03-23T20:31:27.369Z,97751.44
2023-03-23T20:34:01.905Z,97748.31
2023-03-23T20:36:42.325Z,97745.59
2023-03-23T20:39:21.297Z,97735.75
2023-03-23T20:41:50.909Z,97727.91
2023-03-23T20:44:19.013Z,97747.59
2023-03-23T20:46:47.740Z,97740.91
2023-03-23T20:49:15.939Z,97731.91
2023-03-23T20:51:43.731Z,97746.84
2023-03-23T20:54:11.148Z,97753.56
2023-03-23T20:56:40.495Z,97746.88
2023-03-23T20:59:07.158Z,97752.75
2023-03-23T21:01:34.435Z,97745.69
2023-03-23T21:04:03.360Z,97752.78
2023-03-23T21:06:31.061Z,97753.56
2023-03-23T21:08:58.047Z,97762.22
2023-03-23T21:11:26.449Z,97761.84
2023-03-23T21:13:53.622Z,97764.22
2023-03-23T21:16:20.727Z,97768.13
2023-03-23T21:18:48.772Z,97773.25
2023-03-23T21:21:18.613Z,97776.41
2023-03-23T21:23:52.537Z,97748.09
2023-03-23T21:26:22.800Z,97781.91
2023-03-23T21:28:51.074Z,97776.03
2023-03-23T21:31:18.778Z,97770.53
2023-03-23T21:33:45.567Z,97780.34
2023-03-23T21:36:12.953Z,97789.00
2023-03-23T21:38:40.647Z,97789.41
2023-03-23T21:41:13.038Z,97794.50
2023-03-23T21:43:40.754Z,97773.28
2023-03-23T21:46:09.456Z,97780.75
2023-03-23T21:48:38.883Z,97788.63
2023-03-23T21:51:11.790Z,97784.28
2023-03-23T21:53:38.866Z,97780.34
2023-03-23T21:56:07.968Z,97778.00
2023-03-23T21:58:37.052Z,97792.94
2023-03-23T22:01:05.249Z,97791.75
2023-03-23T22:03:33.188Z,97792.13
2023-03-23T22:06:09.196Z,97801.59
2023-03-23T22:08:37.461Z,97809.47
2023-03-23T22:11:13.288Z,97812.59
2023-03-23T22:13:41.076Z,97815.72
2023-03-23T22:16:11.650Z,97809.03
2023-03-23T22:18:39.043Z,97799.25
2023-03-23T22:21:07.446Z,97813.00
2023-03-23T22:23:34.861Z,97807.09
2023-03-23T22:26:03.881Z,97814.94
2023-03-23T22:28:31.642Z,97815.75
2023-03-23T22:31:05.686Z,97808.66
2023-03-23T22:33:34.543Z,97800.81
2023-03-23T22:36:06.257Z,97821.22
2023-03-23T22:38:37.471Z,97825.16
2023-03-23T22:41:07.220Z,97821.63
2023-03-23T22:43:36.102Z,97844.81
2023-03-23T22:46:03.687Z,97820.47
2023-03-23T22:48:30.437Z,97823.59
2023-03-23T22:50:58.553Z,97835.75
2023-03-23T22:53:25.525Z,97846.38
2023-03-23T22:55:55.709Z,97828.31
2023-03-23T22:58:23.084Z,97843.22
2023-03-23T23:00:55.459Z,97853.06
2023-03-23T23:03:22.273Z,97860.13
2023-03-23T23:05:52.052Z,97858.16
2023-03-23T23:08:20.616Z,97865.22
2023-03-23T23:10:51.702Z,97860.50
2023-03-23T23:13:19.289Z,97862.88
2023-03-23T23:15:49.078Z,97859.31
2023-03-23T23:18:18.162Z,97857.34
2023-03-23T23:20:49.334Z,97857.75
2023-03-23T23:23:16.403Z,97866.00
2023-03-23T23:25:43.840Z,97872.28
2023-03-23T23:28:11.227Z,97871.47
2023-03-23T23:30:38.167Z,97866.78
2023-03-23T23:33:06.332Z,97846.34
2023-03-23T23:35:37.100Z,97862.06
2023-03-23T23:38:05.398Z,97873.03
2023-03-23T23:40:35.366Z,97872.25
2023-03-23T23:43:03.596Z,97873.03
2023-03-23T23:45:31.203Z,97869.13
2023-03-23T23:47:58.480Z,97879.34
2023-03-23T23:50:26.078Z,97880.13
2023-03-23T23:52:52.941Z,97875.44
2023-03-23T23:55:21.162Z,97873.03
2023-03-23T23:57:49.216Z,97886.44
